Weather at Radke Airport

Public forecast

Using degrees Fahrenheit for public forecast. Weather courtesy of forecast.io.

Closest aviation weather report (METAR) to Radke Airport

Closest report is South St Paul Municipal Richard E Fleming field, 8.1 nm (14.9 km) W. Retrieved 2021/07/24 23:35 UTC (55 minutes ago):

KSGS 242335Z AUTO 30008G16KT 10SM CLR 32/06 A2990 RMK AO2 T03200060

Closest aviation forecast (TAF) to Radke Airport

Forecast is more than 12 hours old.

Closest forecast is St Paul Downtown Holman Field, 10.7 nm (19.8 km) WNW. Retrieved 2018/02/05 00:21 UTC (3 years ago):

TAF KSTP 052320Z 0600/0624 27006KT P6SM FEW020 FM060100 30010KT P6SM FEW100 FM061600 25004KT P6SM SCT250 FM061900 21006KT P6SM BKN250 AMD NOT SKED